Time;durP1;ratioP1;P1;durP2;ratioP2;P2;SDS_P1;SDS_P2;PMS_P1;PMS_P2;Temp;Humidity;BMP_temperature;BMP_pressure;BME280_temperature;BME280_humidity;BME280_pressure;Samples;Min_cycle;Max_cycle;Signal;HPM_P1;HPM_P2
2022/12/28 00:01:21;;;;;;;;;;;11.20;99.90;;;;;;5049179;28;20339;-66
2022/12/28 00:03:47;;;;;;;;;;;11.20;99.90;;;;;;5050196;28;20000;-67
2022/12/28 00:06:13;;;;;;;;;;;11.20;99.90;;;;;;5048920;28;20015;-67
2022/12/28 00:08:39;;;;;;;;;;;11.20;99.90;;;;;;5048963;28;19920;-66
2022/12/28 00:11:06;;;;;;;;;;;11.30;99.90;;;;;;5045968;28;20359;-68
2022/12/28 00:13:32;;;;;;;;;;;11.30;99.90;;;;;;5050039;28;19908;-67
2022/12/28 00:15:58;;;;;;;;;;;11.40;99.90;;;;;;5052066;28;19916;-66
2022/12/28 00:18:23;;;;;;;;;;;11.40;99.90;;;;;;5051536;28;20417;-67
2022/12/28 00:20:58;;;;;;;;;;;11.40;99.90;;;;;;5052012;28;19909;-68
2022/12/28 00:23:25;;;;;;;;;;;11.40;99.90;;;;;;5049857;28;20401;-66
2022/12/28 00:25:50;;;;;;;;;;;11.40;99.90;;;;;;5049428;28;20319;-67
2022/12/28 00:28:16;;;;;;;;;;;11.40;99.90;;;;;;5051430;28;19996;-67
2022/12/28 00:30:41;;;;;;;;;;;11.50;99.90;;;;;;5047107;28;19913;-67
2022/12/28 00:33:07;;;;;;;;;;;11.50;99.90;;;;;;5050626;28;19909;-67
2022/12/28 00:35:32;;;;;;;;;;;11.50;99.90;;;;;;5051126;28;19916;-67
2022/12/28 00:37:58;;;;;;;;;;;11.50;99.90;;;;;;5047127;28;19932;-67
2022/12/28 00:40:24;;;;;;;;;;;11.40;99.90;;;;;;5049665;28;19966;-67
2022/12/28 00:42:49;;;;;;;;;;;11.50;99.90;;;;;;5038699;28;20016;-67
2022/12/28 00:45:15;;;;;;;;;;;11.50;99.90;;;;;;5032576;28;19916;-67
2022/12/28 00:47:40;;;;;;;;;;;11.50;99.90;;;;;;5047100;28;20370;-67
2022/12/28 00:50:06;;;;;;;;;;;11.50;99.90;;;;;;5050685;28;19913;-66
2022/12/28 00:52:32;;;;;;;;;;;11.40;99.90;;;;;;5040739;28;19913;-66
2022/12/28 00:54:57;;;;;;;;;;;11.50;99.90;;;;;;5048173;28;19955;-66
2022/12/28 00:57:23;;;;;;;;;;;11.60;99.90;;;;;;5048128;28;19918;-66
2022/12/28 00:59:48;;;;;;;;;;;11.60;99.90;;;;;;5046965;28;20282;-66
2022/12/28 01:02:14;;;;;;;;;;;11.60;99.90;;;;;;5045916;28;20446;-66
2022/12/28 01:04:39;;;;;;;;;;;11.50;99.90;;;;;;5046959;28;19909;-66
2022/12/28 01:07:05;;;;;;;;;;;11.40;99.90;;;;;;5044099;28;20016;-66
2022/12/28 01:09:30;;;;;;;;;;;11.20;99.90;;;;;;5032678;28;19960;-66
2022/12/28 01:11:56;;;;;;;;;;;11.10;99.90;;;;;;5032796;28;19935;-66
2022/12/28 01:14:22;;;;;;;;;;;10.90;99.90;;;;;;5042114;28;20313;-66
2022/12/28 01:16:47;;;;;;;;;;;10.80;99.90;;;;;;5046478;28;19916;-66
2022/12/28 01:19:15;;;;;;;;;;;10.80;99.90;;;;;;5047943;28;19919;-66
2022/12/28 01:21:40;;;;;;;;;;;10.70;99.90;;;;;;5036732;28;20012;-67
2022/12/28 01:24:07;;;;;;;;;;;10.70;99.90;;;;;;5051151;28;20003;-66
2022/12/28 01:26:33;;;;;;;;;;;10.60;99.90;;;;;;5050103;28;20267;-66
2022/12/28 01:28:58;;;;;;;;;;;10.50;99.90;;;;;;5049184;28;19915;-66
2022/12/28 01:31:24;;;;;;;;;;;10.50;99.90;;;;;;5048774;28;19913;-65
2022/12/28 01:33:50;;;;;;;;;;;10.50;99.90;;;;;;5030545;28;19909;-65
2022/12/28 01:36:19;;;;;;;;;;;10.50;99.90;;;;;;5044958;28;19987;-66
2022/12/28 01:38:47;;;;;;;;;;;10.50;99.90;;;;;;5031799;28;19917;-66
2022/12/28 01:41:16;;;;;;;;;;;10.40;99.90;;;;;;5034576;28;19916;-65
2022/12/28 01:43:46;;;;;;;;;;;10.50;99.90;;;;;;5037965;28;19912;-65
2022/12/28 01:46:16;;;;;;;;;;;10.40;99.90;;;;;;5043766;28;19932;-65
2022/12/28 01:48:46;;;;;;;;;;;10.40;99.90;;;;;;5037202;28;19924;-66
2022/12/28 01:51:12;;;;;;;;;;;10.40;99.90;;;;;;5036761;28;19921;-65
2022/12/28 01:53:38;;;;;;;;;;;10.40;99.90;;;;;;5034431;28;19987;-65
2022/12/28 01:56:04;;;;;;;;;;;10.40;99.90;;;;;;5041856;28;19912;-65
2022/12/28 01:58:31;;;;;;;;;;;10.40;99.90;;;;;;5035688;28;19921;-65
2022/12/28 02:00:57;;;;;;;;;;;10.40;99.90;;;;;;5040690;28;19917;-65
2022/12/28 02:03:25;;;;;;;;;;;10.40;99.90;;;;;;5051667;28;20086;-65
2022/12/28 02:05:51;;;;;;;;;;;10.40;99.90;;;;;;5037112;28;20264;-64
2022/12/28 02:08:28;;;;;;;;;;;10.40;99.90;;;;;;5035972;28;19916;-65
2022/12/28 02:10:53;;;;;;;;;;;10.40;99.90;;;;;;5036163;28;19913;-65
2022/12/28 02:13:20;;;;;;;;;;;10.40;99.90;;;;;;5038071;28;20262;-65
2022/12/28 02:15:46;;;;;;;;;;;10.40;99.90;;;;;;5038802;28;19921;-65
2022/12/28 02:18:13;;;;;;;;;;;10.40;99.90;;;;;;5046591;28;19916;-65
2022/12/28 02:20:57;;;;;;;;;;;10.30;99.90;;;;;;5053112;28;19912;-65
2022/12/28 02:23:42;;;;;;;;;;;10.10;99.90;;;;;;5052037;28;19970;-66
2022/12/28 02:26:26;;;;;;;;;;;10.10;99.90;;;;;;5052930;28;20009;-65
2022/12/28 02:28:54;;;;;;;;;;;10.10;99.90;;;;;;5046201;28;19967;-66
2022/12/28 02:31:24;;;;;;;;;;;10.10;99.90;;;;;;5047947;28;19913;-66
2022/12/28 02:33:52;;;;;;;;;;;10.00;99.90;;;;;;5053135;28;19915;-66
2022/12/28 02:36:21;;;;;;;;;;;10.00;99.90;;;;;;5052986;28;19909;-66
2022/12/28 02:38:50;;;;;;;;;;;10.00;99.90;;;;;;5052952;28;19927;-65
2022/12/28 02:41:18;;;;;;;;;;;10.00;99.90;;;;;;5040618;28;19913;-65
2022/12/28 02:43:44;;;;;;;;;;;10.00;99.90;;;;;;5048556;28;19959;-65
2022/12/28 02:51:39;;;;;;;;;;;9.90;99.90;;;;;;5049860;28;19920;-65
2022/12/28 02:57:17;;;;;;;;;;;9.90;99.90;;;;;;5039328;28;20148;-65
2022/12/28 02:59:52;;;;;;;;;;;9.90;99.90;;;;;;5047845;28;19974;-66
2022/12/28 03:02:33;;;;;;;;;;;10.00;99.90;;;;;;5057440;28;19916;-66
2022/12/28 03:08:13;;;;;;;;;;;9.90;99.90;;;;;;5050474;28;19973;-66
2022/12/28 03:08:19;;;;;;;;;;;9.90;99.90;;;;;;5047974;28;19917;-66
2022/12/28 03:10:47;;;;;;;;;;;9.90;99.90;;;;;;5042126;28;19920;-65
2022/12/28 03:13:43;;;;;;;;;;;10.00;99.90;;;;;;5051537;28;19920;-66
2022/12/28 03:16:13;;;;;;;;;;;9.90;99.90;;;;;;5047832;28;19923;-65
2022/12/28 03:32:28;;;;;;;;;;;9.80;99.90;;;;;;5041290;28;19932;-66
2022/12/28 03:34:54;;;;;;;;;;;9.80;99.90;;;;;;5041454;28;19966;-66
2022/12/28 03:37:24;;;;;;;;;;;9.70;99.90;;;;;;5048492;28;19928;-67
2022/12/28 03:39:53;;;;;;;;;;;9.80;99.90;;;;;;5030802;28;19916;-66
2022/12/28 03:45:18;;;;;;;;;;;9.80;99.90;;;;;;5031920;28;20299;-64
2022/12/28 03:47:48;;;;;;;;;;;9.80;99.90;;;;;;5031917;28;20054;-65
2022/12/28 03:50:14;;;;;;;;;;;9.80;99.90;;;;;;5034241;28;19928;-65
2022/12/28 03:52:39;;;;;;;;;;;9.70;99.90;;;;;;5035062;28;19917;-65
2022/12/28 03:55:05;;;;;;;;;;;9.80;99.90;;;;;;5044792;28;19924;-66
2022/12/28 03:57:30;;;;;;;;;;;9.80;99.90;;;;;;5051438;28;20287;-67
2022/12/28 03:59:59;;;;;;;;;;;9.80;99.90;;;;;;5051761;28;19959;-66
2022/12/28 04:02:28;;;;;;;;;;;9.70;99.90;;;;;;5051581;28;19920;-67
2022/12/28 04:04:53;;;;;;;;;;;9.80;99.90;;;;;;5051201;28;19913;-65
2022/12/28 04:07:19;;;;;;;;;;;9.80;99.90;;;;;;5049983;28;19958;-67
2022/12/28 04:09:44;;;;;;;;;;;9.90;99.90;;;;;;5051507;28;20006;-64
2022/12/28 04:12:11;;;;;;;;;;;9.90;99.90;;;;;;5043360;28;19924;-66
2022/12/28 04:14:36;;;;;;;;;;;9.90;99.90;;;;;;5029996;28;20279;-66
2022/12/28 04:17:02;;;;;;;;;;;9.80;99.90;;;;;;5031622;28;20318;-69
2022/12/28 04:19:28;;;;;;;;;;;9.80;99.90;;;;;;5039893;28;20369;-66
2022/12/28 04:21:54;;;;;;;;;;;9.90;99.90;;;;;;5037625;28;19913;-67
2022/12/28 04:24:19;;;;;;;;;;;9.80;99.90;;;;;;5034747;28;20715;-66
2022/12/28 04:26:45;;;;;;;;;;;9.80;99.90;;;;;;5033583;28;19921;-67
2022/12/28 04:29:10;;;;;;;;;;;9.80;99.90;;;;;;5035040;28;19944;-66
2022/12/28 04:31:36;;;;;;;;;;;9.70;99.90;;;;;;5037198;28;19920;-64
2022/12/28 04:34:01;;;;;;;;;;;9.70;99.90;;;;;;5037084;28;19921;-65
2022/12/28 04:36:27;;;;;;;;;;;9.70;99.90;;;;;;5034687;28;19963;-67
2022/12/28 04:38:53;;;;;;;;;;;9.70;99.90;;;;;;5039341;28;19913;-66
2022/12/28 04:41:19;;;;;;;;;;;9.70;99.90;;;;;;5046811;28;20440;-66
2022/12/28 04:43:47;;;;;;;;;;;9.70;99.90;;;;;;5051229;28;19920;-67
2022/12/28 04:46:14;;;;;;;;;;;9.70;99.90;;;;;;5037691;28;19947;-67
2022/12/28 04:48:39;;;;;;;;;;;9.70;99.90;;;;;;5043155;28;20023;-66
2022/12/28 04:51:15;;;;;;;;;;;9.70;99.90;;;;;;5046076;28;20377;-66
2022/12/28 04:53:41;;;;;;;;;;;9.70;99.90;;;;;;5048007;28;19912;-68
2022/12/28 04:56:08;;;;;;;;;;;9.70;99.90;;;;;;5046285;28;19920;-65
2022/12/28 04:58:37;;;;;;;;;;;9.80;99.90;;;;;;5043532;28;19935;-64
2022/12/28 05:01:11;;;;;;;;;;;9.70;99.90;;;;;;5053182;28;19912;-66
2022/12/28 05:03:37;;;;;;;;;;;9.70;99.90;;;;;;5034934;28;20052;-66
2022/12/28 05:06:04;;;;;;;;;;;9.70;99.90;;;;;;5034818;28;19968;-67
2022/12/28 05:08:30;;;;;;;;;;;9.70;99.90;;;;;;5037365;28;19913;-66
2022/12/28 05:11:03;;;;;;;;;;;9.70;99.90;;;;;;5036744;28;19918;-66
2022/12/28 05:13:29;;;;;;;;;;;9.70;99.90;;;;;;5037548;28;19921;-67
2022/12/28 05:15:54;;;;;;;;;;;9.70;99.90;;;;;;5035463;28;19973;-67
2022/12/28 05:18:20;;;;;;;;;;;9.70;99.90;;;;;;5033424;28;19919;-67
2022/12/28 05:20:45;;;;;;;;;;;9.70;99.90;;;;;;5035582;28;20400;-65
2022/12/28 05:23:11;;;;;;;;;;;9.70;99.90;;;;;;5050419;28;19908;-65
2022/12/28 05:25:37;;;;;;;;;;;9.70;99.90;;;;;;5046258;28;19916;-66
2022/12/28 05:28:02;;;;;;;;;;;9.80;99.90;;;;;;5048260;28;19943;-67
2022/12/28 05:30:28;;;;;;;;;;;9.80;99.90;;;;;;5050795;28;20358;-67
2022/12/28 05:32:53;;;;;;;;;;;9.90;99.90;;;;;;5051061;28;19915;-67
2022/12/28 05:35:19;;;;;;;;;;;9.90;99.90;;;;;;5032870;28;20402;-66
2022/12/28 05:37:45;;;;;;;;;;;9.80;99.90;;;;;;5047351;28;19935;-67
2022/12/28 05:40:10;;;;;;;;;;;9.90;99.90;;;;;;5053280;28;19940;-66
2022/12/28 05:42:36;;;;;;;;;;;9.80;99.90;;;;;;5049053;28;20348;-66
2022/12/28 05:45:02;;;;;;;;;;;9.70;99.90;;;;;;5052687;28;19921;-66
2022/12/28 05:47:27;;;;;;;;;;;9.70;99.90;;;;;;5051691;28;19913;-66
2022/12/28 05:49:53;;;;;;;;;;;9.70;99.90;;;;;;5031972;28;19924;-66
2022/12/28 05:52:18;;;;;;;;;;;9.70;99.90;;;;;;5050514;28;19913;-67
2022/12/28 05:54:44;;;;;;;;;;;9.60;99.90;;;;;;5035605;28;19916;-68
2022/12/28 05:57:10;;;;;;;;;;;9.60;99.90;;;;;;5028963;28;19913;-66
2022/12/28 05:59:35;;;;;;;;;;;9.50;99.90;;;;;;5043852;28;19912;-66
2022/12/28 06:02:01;;;;;;;;;;;9.60;99.90;;;;;;5054023;28;20000;-66
2022/12/28 06:04:26;;;;;;;;;;;9.60;99.90;;;;;;5053715;28;20287;-67
2022/12/28 06:06:53;;;;;;;;;;;9.60;99.90;;;;;;5052635;28;19970;-66
2022/12/28 06:09:18;;;;;;;;;;;9.60;99.90;;;;;;5046713;28;19917;-65
2022/12/28 06:11:45;;;;;;;;;;;9.50;99.90;;;;;;5043307;28;19913;-66
2022/12/28 06:14:10;;;;;;;;;;;9.50;99.90;;;;;;5030323;28;19996;-65
2022/12/28 06:16:40;;;;;;;;;;;9.40;99.90;;;;;;5037221;28;20058;-68
2022/12/28 06:19:07;;;;;;;;;;;9.40;99.90;;;;;;5045039;28;20306;-67
2022/12/28 06:21:33;;;;;;;;;;;9.40;99.90;;;;;;5049550;28;19960;-66
2022/12/28 06:23:59;;;;;;;;;;;9.40;99.90;;;;;;5049168;28;19913;-65
2022/12/28 06:26:26;;;;;;;;;;;9.40;99.90;;;;;;5048408;28;19920;-67
2022/12/28 06:28:52;;;;;;;;;;;9.40;99.90;;;;;;5046536;28;20007;-66
2022/12/28 06:31:17;;;;;;;;;;;9.40;99.90;;;;;;5051940;28;19952;-65
2022/12/28 06:33:43;;;;;;;;;;;9.50;99.90;;;;;;5042821;28;19921;-65
2022/12/28 06:36:13;;;;;;;;;;;9.50;99.90;;;;;;5044409;28;20554;-66
2022/12/28 06:38:38;;;;;;;;;;;9.50;99.90;;;;;;5040879;28;20283;-65
2022/12/28 06:41:05;;;;;;;;;;;9.50;99.90;;;;;;5048440;28;19913;-66
2022/12/28 06:43:35;;;;;;;;;;;9.60;99.90;;;;;;5050269;28;19912;-68
2022/12/28 06:46:00;;;;;;;;;;;9.60;99.90;;;;;;5038391;28;19917;-67
2022/12/28 06:48:26;;;;;;;;;;;9.60;99.90;;;;;;5049545;28;19940;-65
2022/12/28 06:51:03;;;;;;;;;;;9.60;99.90;;;;;;5049684;28;19913;-66
2022/12/28 06:53:30;;;;;;;;;;;9.60;99.90;;;;;;5053340;28;19909;-66
2022/12/28 06:56:00;;;;;;;;;;;9.60;99.90;;;;;;5038809;28;19916;-65
2022/12/28 06:58:26;;;;;;;;;;;9.60;99.90;;;;;;5035022;28;19917;-66
2022/12/28 07:00:52;;;;;;;;;;;9.60;99.90;;;;;;5036662;28;20367;-65
2022/12/28 07:03:18;;;;;;;;;;;9.50;99.90;;;;;;5037873;28;19920;-65
2022/12/28 07:05:43;;;;;;;;;;;9.50;99.90;;;;;;5037928;28;19917;-66
2022/12/28 07:08:09;;;;;;;;;;;9.60;99.90;;;;;;5037796;28;19921;-66
2022/12/28 07:10:36;;;;;;;;;;;9.60;99.90;;;;;;5035455;28;19913;-65
2022/12/28 07:13:02;;;;;;;;;;;9.70;99.90;;;;;;5038109;28;20339;-65
2022/12/28 07:15:27;;;;;;;;;;;9.70;99.90;;;;;;5060078;28;19920;-66
2022/12/28 07:17:53;;;;;;;;;;;9.70;99.90;;;;;;5047850;28;19913;-65
2022/12/28 07:20:19;;;;;;;;;;;9.70;99.90;;;;;;5049368;28;19920;-64
2022/12/28 07:22:44;;;;;;;;;;;9.70;99.90;;;;;;5047833;28;19940;-65
2022/12/28 07:25:10;;;;;;;;;;;9.70;99.90;;;;;;5050783;28;20003;-65
2022/12/28 07:27:35;;;;;;;;;;;9.80;99.90;;;;;;5050827;28;19923;-67
2022/12/28 07:30:02;;;;;;;;;;;9.80;99.90;;;;;;5044409;28;19952;-65
2022/12/28 07:32:27;;;;;;;;;;;9.80;99.90;;;;;;5050385;28;20351;-65
2022/12/28 07:34:53;;;;;;;;;;;9.80;99.90;;;;;;5048516;28;19917;-66
2022/12/28 07:37:18;;;;;;;;;;;9.80;99.90;;;;;;5049330;28;19999;-65
2022/12/28 07:39:44;;;;;;;;;;;9.90;99.90;;;;;;5051716;28;19913;-65
2022/12/28 07:42:11;;;;;;;;;;;10.00;99.90;;;;;;5051673;28;20382;-66
2022/12/28 07:44:36;;;;;;;;;;;10.10;99.90;;;;;;5052159;28;19909;-66
2022/12/28 07:47:02;;;;;;;;;;;10.10;99.90;;;;;;5047295;28;20012;-65
2022/12/28 07:49:28;;;;;;;;;;;10.10;99.90;;;;;;5051018;28;19958;-66
2022/12/28 07:51:54;;;;;;;;;;;10.00;99.90;;;;;;5045289;28;19913;-66
2022/12/28 07:54:19;;;;;;;;;;;10.00;99.90;;;;;;5045631;28;20291;-67
2022/12/28 07:56:45;;;;;;;;;;;10.00;99.90;;;;;;5046621;28;19965;-66
2022/12/28 07:59:13;;;;;;;;;;;10.00;99.90;;;;;;5045011;28;19967;-63
2022/12/28 08:01:38;;;;;;;;;;;10.00;99.90;;;;;;5051715;28;19916;-64
2022/12/28 08:04:06;;;;;;;;;;;10.00;99.90;;;;;;5046135;28;19913;-64
2022/12/28 08:06:33;;;;;;;;;;;10.00;99.90;;;;;;5043955;28;19940;-65
2022/12/28 08:08:59;;;;;;;;;;;10.10;99.90;;;;;;5050442;28;20096;-60
2022/12/28 08:11:28;;;;;;;;;;;10.10;99.90;;;;;;5044197;28;19917;-62
2022/12/28 08:13:55;;;;;;;;;;;10.10;99.90;;;;;;5045124;28;19920;-62
2022/12/28 08:16:23;;;;;;;;;;;10.10;99.90;;;;;;5045624;28;19927;-60
2022/12/28 08:18:49;;;;;;;;;;;10.10;99.90;;;;;;5041157;28;19924;-61
2022/12/28 08:21:19;;;;;;;;;;;10.10;99.90;;;;;;5043482;28;19912;-61
2022/12/28 08:23:45;;;;;;;;;;;10.10;99.90;;;;;;5048523;28;19924;-63
2022/12/28 08:26:10;;;;;;;;;;;10.20;99.90;;;;;;5041529;28;19917;-63
2022/12/28 08:28:37;;;;;;;;;;;10.20;99.90;;;;;;5043181;28;20004;-61
2022/12/28 08:31:06;;;;;;;;;;;10.20;99.90;;;;;;5045207;28;19913;-62
2022/12/28 08:33:32;;;;;;;;;;;10.30;99.90;;;;;;5046419;28;20015;-59
2022/12/28 08:35:58;;;;;;;;;;;10.40;99.90;;;;;;5039270;28;20089;-62
2022/12/28 08:38:23;;;;;;;;;;;10.40;99.90;;;;;;5048368;28;19962;-63
2022/12/28 08:40:59;;;;;;;;;;;10.40;99.90;;;;;;5046305;28;19917;-63
2022/12/28 08:43:26;;;;;;;;;;;10.40;99.90;;;;;;5045881;28;19920;-63
2022/12/28 08:46:00;;;;;;;;;;;10.50;99.90;;;;;;5046328;28;20395;-63
2022/12/28 08:48:26;;;;;;;;;;;10.60;99.90;;;;;;5046429;28;19916;-62
2022/12/28 08:50:52;;;;;;;;;;;10.60;99.90;;;;;;5046391;28;19920;-61
2022/12/28 08:53:18;;;;;;;;;;;10.70;99.90;;;;;;5048632;28;19909;-65
2022/12/28 08:55:44;;;;;;;;;;;10.70;99.90;;;;;;5047111;28;19947;-63
2022/12/28 08:58:09;;;;;;;;;;;10.70;99.90;;;;;;5046658;28;19913;-64
2022/12/28 09:00:35;;;;;;;;;;;10.80;99.90;;;;;;5045305;28;19912;-61
2022/12/28 09:03:00;;;;;;;;;;;10.80;99.90;;;;;;5050501;28;19962;-62
2022/12/28 09:05:26;;;;;;;;;;;10.80;99.90;;;;;;5042092;28;19962;-63
2022/12/28 09:07:51;;;;;;;;;;;10.70;99.90;;;;;;5045319;28;20302;-62
2022/12/28 09:10:17;;;;;;;;;;;10.70;99.90;;;;;;5047967;28;19908;-63
2022/12/28 09:12:43;;;;;;;;;;;10.80;99.90;;;;;;5042830;28;19936;-62
2022/12/28 09:15:09;;;;;;;;;;;10.80;99.90;;;;;;5050763;28;19920;-60
2022/12/28 09:17:34;;;;;;;;;;;10.90;99.90;;;;;;5045215;28;19917;-61
2022/12/28 09:20:00;;;;;;;;;;;10.90;99.90;;;;;;5048449;28;20336;-62
2022/12/28 09:22:25;;;;;;;;;;;11.00;99.90;;;;;;5046737;28;19948;-62
2022/12/28 09:24:51;;;;;;;;;;;11.00;99.90;;;;;;5048797;28;19956;-60
2022/12/28 09:27:16;;;;;;;;;;;11.00;99.90;;;;;;5046730;28;19928;-63
2022/12/28 09:29:42;;;;;;;;;;;11.00;99.90;;;;;;5048555;28;19919;-63
2022/12/28 09:32:07;;;;;;;;;;;11.00;99.90;;;;;;5049815;28;19913;-61
2022/12/28 09:34:34;;;;;;;;;;;11.00;99.90;;;;;;5048476;28;20567;-62
2022/12/28 09:37:00;;;;;;;;;;;11.00;99.90;;;;;;5045391;28;20270;-64
2022/12/28 09:39:26;;;;;;;;;;;11.00;99.90;;;;;;5051144;28;19945;-63
2022/12/28 09:42:01;;;;;;;;;;;11.10;99.90;;;;;;5050628;28;20362;-62
2022/12/28 09:44:29;;;;;;;;;;;11.10;99.90;;;;;;5050565;28;19935;-64
2022/12/28 09:46:55;;;;;;;;;;;11.10;99.90;;;;;;5042564;28;19917;-63
2022/12/28 09:49:24;;;;;;;;;;;11.20;99.90;;;;;;5047692;28;20339;-64
2022/12/28 09:52:08;;;;;;;;;;;11.30;99.90;;;;;;5047104;28;20004;-63
2022/12/28 09:54:33;;;;;;;;;;;11.30;99.90;;;;;;5048169;28;20011;-64
2022/12/28 09:56:59;;;;;;;;;;;11.40;99.90;;;;;;5042020;28;19996;-62
2022/12/28 09:59:27;;;;;;;;;;;11.50;99.90;;;;;;5050181;28;19917;-60
2022/12/28 10:01:57;;;;;;;;;;;11.60;99.90;;;;;;5042514;28;19909;-66
2022/12/28 10:04:23;;;;;;;;;;;11.60;99.90;;;;;;5046484;28;20495;-63
2022/12/28 10:06:48;;;;;;;;;;;11.60;99.90;;;;;;5052215;28;19964;-61
2022/12/28 10:09:40;;;;;;;;;;;11.60;99.90;;;;;;5052575;28;19913;-63
2022/12/28 10:12:16;;;;;;;;;;;11.80;99.90;;;;;;5048605;28;19917;-62
2022/12/28 10:14:44;;;;;;;;;;;11.80;99.90;;;;;;5049545;28;19924;-64
2022/12/28 10:17:14;;;;;;;;;;;12.00;99.90;;;;;;5051127;28;20417;-65
2022/12/28 10:19:40;;;;;;;;;;;11.90;99.90;;;;;;5043040;28;19912;-64
2022/12/28 10:22:07;;;;;;;;;;;12.00;99.90;;;;;;5048235;28;19971;-62
2022/12/28 10:24:32;;;;;;;;;;;12.00;99.90;;;;;;5052012;28;19935;-64
2022/12/28 10:26:58;;;;;;;;;;;12.10;99.90;;;;;;5047060;28;19913;-64
2022/12/28 10:29:25;;;;;;;;;;;12.10;99.90;;;;;;5048995;28;20517;-63
2022/12/28 10:32:05;;;;;;;;;;;12.10;99.90;;;;;;5044786;28;19913;-63
2022/12/28 10:34:32;;;;;;;;;;;12.10;99.90;;;;;;5041419;28;20143;-63
2022/12/28 10:37:06;;;;;;;;;;;12.20;99.90;;;;;;5040550;28;19913;-63
2022/12/28 10:39:31;;;;;;;;;;;12.20;99.90;;;;;;5050231;28;19991;-62
2022/12/28 10:41:59;;;;;;;;;;;12.30;99.90;;;;;;5045984;28;20074;-65
2022/12/28 10:44:32;;;;;;;;;;;12.30;99.90;;;;;;5039914;28;20386;-63
2022/12/28 10:46:59;;;;;;;;;;;12.30;99.90;;;;;;5047104;28;19956;-64
2022/12/28 10:49:30;;;;;;;;;;;12.30;99.90;;;;;;5050314;28;19917;-64
2022/12/28 10:52:01;;;;;;;;;;;12.30;99.90;;;;;;5046680;28;20000;-64
2022/12/28 10:54:30;;;;;;;;;;;12.30;99.90;;;;;;5043588;28;19909;-64
2022/12/28 10:56:55;;;;;;;;;;;12.20;99.90;;;;;;5048950;28;19921;-64
2022/12/28 10:59:26;;;;;;;;;;;12.30;99.90;;;;;;5050559;28;19920;-64
2022/12/28 11:01:52;;;;;;;;;;;12.40;99.90;;;;;;5051770;28;19908;-62
2022/12/28 11:04:19;;;;;;;;;;;12.40;99.90;;;;;;5042579;28;19920;-62
2022/12/28 11:06:52;;;;;;;;;;;12.50;99.90;;;;;;5040482;28;19924;-60
2022/12/28 11:09:36;;;;;;;;;;;12.60;99.90;;;;;;5044484;28;19919;-63
2022/12/28 11:12:30;;;;;;;;;;;12.70;99.90;;;;;;5045715;28;19917;-64
2022/12/28 11:14:56;;;;;;;;;;;12.70;99.90;;;;;;5045565;28;19913;-62
2022/12/28 11:17:25;;;;;;;;;;;12.60;99.90;;;;;;5044117;28;19927;-63
2022/12/28 11:19:56;;;;;;;;;;;12.70;99.90;;;;;;5050181;28;19952;-63
2022/12/28 11:22:26;;;;;;;;;;;12.70;99.90;;;;;;5051883;28;20308;-62
2022/12/28 11:24:52;;;;;;;;;;;12.80;99.90;;;;;;5051711;28;20339;-64
2022/12/28 11:27:20;;;;;;;;;;;12.80;99.90;;;;;;5046307;28;19955;-62
2022/12/28 11:29:47;;;;;;;;;;;13.00;99.90;;;;;;5048973;28;19936;-63
2022/12/28 11:32:21;;;;;;;;;;;13.10;99.90;;;;;;5052278;28;20289;-62
2022/12/28 11:34:47;;;;;;;;;;;13.00;99.90;;;;;;5049172;28;19920;-64
2022/12/28 11:37:13;;;;;;;;;;;13.10;99.90;;;;;;5051143;28;19912;-63
2022/12/28 11:39:49;;;;;;;;;;;13.00;99.90;;;;;;5044648;28;19913;-63
2022/12/28 11:42:33;;;;;;;;;;;13.00;99.90;;;;;;5051829;28;20330;-64
2022/12/28 11:45:00;;;;;;;;;;;13.10;99.90;;;;;;5044905;28;20343;-62
2022/12/28 11:47:32;;;;;;;;;;;13.30;99.90;;;;;;5045930;28;19951;-62
2022/12/28 11:50:27;;;;;;;;;;;13.30;99.90;;;;;;5043201;28;19939;-64
2022/12/28 11:52:52;;;;;;;;;;;13.30;99.90;;;;;;5048918;28;20370;-62
2022/12/28 11:55:22;;;;;;;;;;;13.20;99.90;;;;;;5047615;28;19912;-62
2022/12/28 11:57:47;;;;;;;;;;;13.20;99.90;;;;;;5044702;28;19964;-64
2022/12/28 12:00:17;;;;;;;;;;;13.10;99.90;;;;;;5042127;28;19952;-64
2022/12/28 12:02:56;;;;;;;;;;;13.10;99.90;;;;;;5046663;28;19916;-63
2022/12/28 12:05:37;;;;;;;;;;;13.00;99.90;;;;;;5047335;28;19956;-63
2022/12/28 12:08:08;;;;;;;;;;;13.00;99.90;;;;;;5044630;28;19991;-62
2022/12/28 12:10:35;;;;;;;;;;;13.00;99.90;;;;;;5043937;28;19913;-62
2022/12/28 12:13:02;;;;;;;;;;;13.00;99.90;;;;;;5048918;28;19917;-64
2022/12/28 12:15:32;;;;;;;;;;;12.90;99.90;;;;;;5043806;28;19913;-65
2022/12/28 12:18:02;;;;;;;;;;;12.90;99.90;;;;;;5047675;28;20003;-62
2022/12/28 12:20:47;;;;;;;;;;;12.90;99.90;;;;;;5049362;28;19995;-64
2022/12/28 12:23:18;;;;;;;;;;;12.90;99.90;;;;;;5047960;28;19913;-63
2022/12/28 12:25:47;;;;;;;;;;;12.80;99.90;;;;;;5042105;28;19913;-63
2022/12/28 12:28:31;;;;;;;;;;;12.80;99.90;;;;;;5043990;28;19920;-63
2022/12/28 12:30:57;;;;;;;;;;;12.90;99.90;;;;;;5047516;28;19913;-62
2022/12/28 12:33:29;;;;;;;;;;;13.00;99.90;;;;;;5036141;28;19920;-62
2022/12/28 12:35:57;;;;;;;;;;;13.00;99.90;;;;;;5042798;28;20076;-64
2022/12/28 12:38:46;;;;;;;;;;;13.00;99.90;;;;;;5044925;28;19913;-64
2022/12/28 12:41:41;;;;;;;;;;;13.00;99.90;;;;;;5051355;28;19986;-64
2022/12/28 12:44:25;;;;;;;;;;;13.00;99.90;;;;;;5039322;28;20307;-63
2022/12/28 12:47:11;;;;;;;;;;;12.90;99.90;;;;;;5043764;28;19948;-64
2022/12/28 12:49:37;;;;;;;;;;;12.90;99.90;;;;;;5046267;28;20486;-66
2022/12/28 12:52:08;;;;;;;;;;;12.90;99.90;;;;;;5039606;28;20044;-63
2022/12/28 12:54:37;;;;;;;;;;;12.90;99.90;;;;;;5041208;28;19913;-64
2022/12/28 12:57:23;;;;;;;;;;;12.90;99.90;;;;;;5045704;28;19948;-61
2022/12/28 12:59:52;;;;;;;;;;;12.80;99.90;;;;;;5048996;28;19938;-63
2022/12/28 13:02:18;;;;;;;;;;;12.70;99.90;;;;;;5043465;28;19925;-58
2022/12/28 13:04:44;;;;;;;;;;;12.60;99.90;;;;;;5045563;28;19966;-65
2022/12/28 13:07:21;;;;;;;;;;;12.60;99.90;;;;;;5045297;28;19939;-62
2022/12/28 13:09:47;;;;;;;;;;;12.60;99.90;;;;;;5048691;28;20430;-64
2022/12/28 13:12:16;;;;;;;;;;;12.60;99.90;;;;;;5041563;28;19920;-65
2022/12/28 13:14:46;;;;;;;;;;;12.60;99.90;;;;;;5037038;28;19913;-64
2022/12/28 13:17:16;;;;;;;;;;;12.60;99.90;;;;;;5049335;28;19909;-64
2022/12/28 13:19:42;;;;;;;;;;;12.60;99.90;;;;;;5043134;28;20289;-65
2022/12/28 13:22:24;;;;;;;;;;;12.60;99.90;;;;;;5045814;28;19913;-67
2022/12/28 13:24:49;;;;;;;;;;;12.50;99.90;;;;;;5040122;28;19936;-65
2022/12/28 13:27:19;;;;;;;;;;;12.50;99.90;;;;;;5043907;28;20379;-64
2022/12/28 13:29:49;;;;;;;;;;;12.50;99.90;;;;;;5045429;28;19920;-65
2022/12/28 13:32:28;;;;;;;;;;;12.40;99.90;;;;;;5049443;28;20114;-66
2022/12/28 13:34:54;;;;;;;;;;;12.40;99.90;;;;;;5037816;28;19913;-67
2022/12/28 13:37:20;;;;;;;;;;;12.40;99.90;;;;;;5045990;28;20294;-65
2022/12/28 13:39:46;;;;;;;;;;;12.40;99.90;;;;;;5051401;28;19974;-64
2022/12/28 13:42:20;;;;;;;;;;;12.40;99.90;;;;;;5070442;28;19909;-64
2022/12/28 13:44:56;;;;;;;;;;;12.30;99.90;;;;;;5051414;28;19920;-65
2022/12/28 13:47:25;;;;;;;;;;;12.40;99.90;;;;;;5036259;28;20363;-63
2022/12/28 13:49:53;;;;;;;;;;;12.40;99.90;;;;;;5035777;28;19913;-63
2022/12/28 13:52:25;;;;;;;;;;;12.40;99.90;;;;;;5036123;28;19913;-63
2022/12/28 13:54:53;;;;;;;;;;;12.50;99.90;;;;;;5036090;28;19921;-65
2022/12/28 13:57:19;;;;;;;;;;;12.60;99.90;;;;;;5034541;28;20501;-64
2022/12/28 13:59:45;;;;;;;;;;;12.60;99.90;;;;;;5038619;28;19921;-65
2022/12/28 14:02:18;;;;;;;;;;;12.50;99.90;;;;;;5046151;28;19913;-65
2022/12/28 14:04:44;;;;;;;;;;;12.50;99.90;;;;;;5041675;28;19959;-63
2022/12/28 14:07:15;;;;;;;;;;;12.50;99.90;;;;;;5035554;28;19917;-67
2022/12/28 14:09:41;;;;;;;;;;;12.50;99.90;;;;;;5044977;28;19913;-64
2022/12/28 14:12:07;;;;;;;;;;;12.40;99.90;;;;;;5046235;28;19913;-63
2022/12/28 14:14:33;;;;;;;;;;;12.50;99.90;;;;;;5050151;28;19913;-61
2022/12/28 14:17:00;;;;;;;;;;;12.40;99.90;;;;;;5047226;28;19913;-64
2022/12/28 14:19:26;;;;;;;;;;;12.40;99.90;;;;;;5046243;28;19971;-65
2022/12/28 14:21:52;;;;;;;;;;;12.40;99.90;;;;;;5038650;28;19920;-65
2022/12/28 14:24:18;;;;;;;;;;;12.30;99.90;;;;;;5051901;28;19913;-67
2022/12/28 14:26:56;;;;;;;;;;;12.40;99.90;;;;;;5052602;28;19966;-65
2022/12/28 14:29:28;;;;;;;;;;;12.40;99.90;;;;;;5053728;28;19916;-67
2022/12/28 14:31:57;;;;;;;;;;;12.40;99.90;;;;;;5044416;28;19913;-65
2022/12/28 14:34:26;;;;;;;;;;;12.30;99.90;;;;;;5037443;28;19917;-65
2022/12/28 14:36:53;;;;;;;;;;;12.50;99.90;;;;;;5037913;28;19953;-63
2022/12/28 14:39:24;;;;;;;;;;;12.50;99.90;;;;;;5047092;28;20490;-65
2022/12/28 14:41:49;;;;;;;;;;;12.50;99.90;;;;;;5044232;28;20383;-65
2022/12/28 14:44:19;;;;;;;;;;;12.40;99.90;;;;;;5040025;28;19917;-65
2022/12/28 14:46:45;;;;;;;;;;;12.40;99.90;;;;;;5051469;28;20024;-65
2022/12/28 14:49:43;;;;;;;;;;;12.40;99.90;;;;;;5049010;28;19939;-66
2022/12/28 14:52:08;;;;;;;;;;;12.40;99.90;;;;;;5019100;28;19920;-66
2022/12/28 14:54:43;;;;;;;;;;;12.40;99.90;;;;;;5051890;28;20003;-61